sensor_id;sensor_type;location;lat;lon;timestamp;pressure;altitude;pressure_sealevel;temperature
62107;BMP280;48087;32.600;-97.100;2022-07-24T00:03:03;;;;39.11072
62107;BMP280;48087;32.600;-97.100;2022-07-24T00:08:08;;;;38.22184
62107;BMP280;48087;32.600;-97.100;2022-07-24T00:13:12;;;;37.99962
62107;BMP280;48087;32.600;-97.100;2022-07-24T00:18:15;;;;37.610735
62107;BMP280;48087;32.600;-97.100;2022-07-24T00:23:19;;;;37.66629
62107;BMP280;48087;32.600;-97.100;2022-07-24T00:28:23;;;;37.166295000000005
62107;BMP280;48087;32.600;-97.100;2022-07-24T00:33:26;;;;37.166295000000005
62107;BMP280;48087;32.600;-97.100;2022-07-24T00:38:31;;;;36.832964999999994
62107;BMP280;48087;32.600;-97.100;2022-07-24T00:43:35;;;;36.22186
62107;BMP280;48087;32.600;-97.100;2022-07-24T00:48:39;;;;35.888529999999996
62107;BMP280;48087;32.600;-97.100;2022-07-24T00:53:43;;;;35.610755
62107;BMP280;48087;32.600;-97.100;2022-07-24T00:58:46;;;;35.444089999999996
62107;BMP280;48087;32.600;-97.100;2022-07-24T01:03:51;;;;35.22187
62107;BMP280;48087;32.600;-97.100;2022-07-24T01:08:54;;;;35.11076
62107;BMP280;48087;32.600;-97.100;2022-07-24T01:13:59;;;;34.99965
62107;BMP280;48087;32.600;-97.100;2022-07-24T01:19:02;;;;34.66632
62107;BMP280;48087;32.600;-97.100;2022-07-24T01:24:07;;;;34.499655
62107;BMP280;48087;32.600;-97.100;2022-07-24T01:29:10;;;;34.22188
62107;BMP280;48087;32.600;-97.100;2022-07-24T01:34:14;;;;33.99966
62107;BMP280;48087;32.600;-97.100;2022-07-24T01:39:18;;;;33.832995000000004
62107;BMP280;48087;32.600;-97.100;2022-07-24T01:44:23;;;;33.44411
62107;BMP280;48087;32.600;-97.100;2022-07-24T01:49:26;;;;33.221889999999995
62107;BMP280;48087;32.600;-97.100;2022-07-24T01:54:31;;;;33.221889999999995
62107;BMP280;48087;32.600;-97.100;2022-07-24T01:59:34;;;;32.83300499999999
62107;BMP280;48087;32.600;-97.100;2022-07-24T02:04:39;;;;32.610785
62107;BMP280;48087;32.600;-97.100;2022-07-24T02:09:42;;;;32.2219
62107;BMP280;48087;32.600;-97.100;2022-07-24T02:14:47;;;;31.999679999999998
62107;BMP280;48087;32.600;-97.100;2022-07-24T02:19:50;;;;32.110789999999994
62107;BMP280;48087;32.600;-97.100;2022-07-24T02:24:54;;;;32.166345
62107;BMP280;48087;32.600;-97.100;2022-07-24T02:29:58;;;;31.999679999999998
62107;BMP280;48087;32.600;-97.100;2022-07-24T02:35:03;;;;31.721904999999996
62107;BMP280;48087;32.600;-97.100;2022-07-24T02:40:07;;;;31.555239999999998
62107;BMP280;48087;32.600;-97.100;2022-07-24T02:45:11;;;;31.444129999999998
62107;BMP280;48087;32.600;-97.100;2022-07-24T02:50:14;;;;31.110799999999998
62107;BMP280;48087;32.600;-97.100;2022-07-24T02:55:19;;;;30.888579999999997
62107;BMP280;48087;32.600;-97.100;2022-07-24T03:00:22;;;;30.721915
62107;BMP280;48087;32.600;-97.100;2022-07-24T03:05:27;;;;30.66636
62107;BMP280;48087;32.600;-97.100;2022-07-24T03:10:31;;;;30.610804999999996
62107;BMP280;48087;32.600;-97.100;2022-07-24T03:15:34;;;;30.499695000000003
62107;BMP280;48087;32.600;-97.100;2022-07-24T03:20:38;;;;30.499695000000003
62107;BMP280;48087;32.600;-97.100;2022-07-24T03:25:42;;;;30.277475
62107;BMP280;48087;32.600;-97.100;2022-07-24T03:30:47;;;;30.166365
62107;BMP280;48087;32.600;-97.100;2022-07-24T03:35:50;;;;29.944145000000002
62107;BMP280;48087;32.600;-97.100;2022-07-24T03:40:54;;;;29.944145000000002
62107;BMP280;48087;32.600;-97.100;2022-07-24T03:45:59;;;;30.055254999999995
62107;BMP280;48087;32.600;-97.100;2022-07-24T03:51:02;;;;30.333029999999997
62107;BMP280;48087;32.600;-97.100;2022-07-24T03:56:06;;;;30.55525
62107;BMP280;48087;32.600;-97.100;2022-07-24T04:01:11;;;;30.721915
62107;BMP280;48087;32.600;-97.100;2022-07-24T04:06:14;;;;30.721915
62107;BMP280;48087;32.600;-97.100;2022-07-24T04:11:18;;;;30.499695000000003
62107;BMP280;48087;32.600;-97.100;2022-07-24T04:16:23;;;;30.499695000000003
62107;BMP280;48087;32.600;-97.100;2022-07-24T04:21:26;;;;30.721915
62107;BMP280;48087;32.600;-97.100;2022-07-24T04:26:30;;;;30.833025
62107;BMP280;48087;32.600;-97.100;2022-07-24T04:31:33;;;;30.999689999999998
62107;BMP280;48087;32.600;-97.100;2022-07-24T04:36:38;;;;31.110799999999998
62107;BMP280;48087;32.600;-97.100;2022-07-24T04:41:42;;;;31.166354999999996
62107;BMP280;48087;32.600;-97.100;2022-07-24T04:46:47;;;;31.166354999999996
62107;BMP280;48087;32.600;-97.100;2022-07-24T04:51:50;;;;31.110799999999998
62107;BMP280;48087;32.600;-97.100;2022-07-24T04:56:54;;;;30.944135
62107;BMP280;48087;32.600;-97.100;2022-07-24T05:01:57;;;;30.721915
62107;BMP280;48087;32.600;-97.100;2022-07-24T05:07:02;;;;30.66636
62107;BMP280;48087;32.600;-97.100;2022-07-24T05:12:06;;;;30.610804999999996
62107;BMP280;48087;32.600;-97.100;2022-07-24T05:17:11;;;;30.499695000000003
62107;BMP280;48087;32.600;-97.100;2022-07-24T05:22:13;;;;30.388585000000003
62107;BMP280;48087;32.600;-97.100;2022-07-24T05:27:17;;;;30.22192
62107;BMP280;48087;32.600;-97.100;2022-07-24T05:32:22;;;;30.055254999999995
62107;BMP280;48087;32.600;-97.100;2022-07-24T05:37:25;;;;29.944145000000002
62107;BMP280;48087;32.600;-97.100;2022-07-24T05:42:29;;;;29.888589999999997
62107;BMP280;48087;32.600;-97.100;2022-07-24T05:47:35;;;;29.888589999999997
62107;BMP280;48087;32.600;-97.100;2022-07-24T05:52:38;;;;29.777479999999997
62107;BMP280;48087;32.600;-97.100;2022-07-24T05:57:41;;;;29.721925
62107;BMP280;48087;32.600;-97.100;2022-07-24T06:02:45;;;;29.666370000000004
62107;BMP280;48087;32.600;-97.100;2022-07-24T06:07:49;;;;29.777479999999997
62107;BMP280;48087;32.600;-97.100;2022-07-24T06:12:53;;;;29.777479999999997
62107;BMP280;48087;32.600;-97.100;2022-07-24T06:17:57;;;;29.666370000000004
62107;BMP280;48087;32.600;-97.100;2022-07-24T06:23:01;;;;29.833035000000002
62107;BMP280;48087;32.600;-97.100;2022-07-24T06:28:06;;;;29.777479999999997
62107;BMP280;48087;32.600;-97.100;2022-07-24T06:33:09;;;;29.888589999999997
62107;BMP280;48087;32.600;-97.100;2022-07-24T06:38:14;;;;29.777479999999997
62107;BMP280;48087;32.600;-97.100;2022-07-24T06:43:17;;;;29.721925
62107;BMP280;48087;32.600;-97.100;2022-07-24T06:48:21;;;;29.721925
62107;BMP280;48087;32.600;-97.100;2022-07-24T06:53:25;;;;29.610815
62107;BMP280;48087;32.600;-97.100;2022-07-24T06:58:30;;;;29.499704999999995
62107;BMP280;48087;32.600;-97.100;2022-07-24T07:03:33;;;;29.499704999999995
62107;BMP280;48087;32.600;-97.100;2022-07-24T07:08:38;;;;29.333039999999997
62107;BMP280;48087;32.600;-97.100;2022-07-24T07:13:41;;;;29.221929999999997
62107;BMP280;48087;32.600;-97.100;2022-07-24T07:18:46;;;;29.221929999999997
62107;BMP280;48087;32.600;-97.100;2022-07-24T07:23:50;;;;29.166375
62107;BMP280;48087;32.600;-97.100;2022-07-24T07:28:53;;;;29.110820000000004
62107;BMP280;48087;32.600;-97.100;2022-07-24T07:33:58;;;;29.055265
62107;BMP280;48087;32.600;-97.100;2022-07-24T07:39:01;;;;28.944154999999995
62107;BMP280;48087;32.600;-97.100;2022-07-24T07:44:06;;;;28.833045000000002
62107;BMP280;48087;32.600;-97.100;2022-07-24T07:49:09;;;;28.721935000000002
62107;BMP280;48087;32.600;-97.100;2022-07-24T07:54:14;;;;28.721935000000002
62107;BMP280;48087;32.600;-97.100;2022-07-24T07:59:17;;;;28.555270000000004
62107;BMP280;48087;32.600;-97.100;2022-07-24T08:04:21;;;;28.499715
62107;BMP280;48087;32.600;-97.100;2022-07-24T08:09:25;;;;28.388604999999995
62107;BMP280;48087;32.600;-97.100;2022-07-24T08:14:29;;;;28.388604999999995
62107;BMP280;48087;32.600;-97.100;2022-07-24T08:19:33;;;;28.277495000000002
62107;BMP280;48087;32.600;-97.100;2022-07-24T08:24:38;;;;28.221939999999996
62107;BMP280;48087;32.600;-97.100;2022-07-24T08:29:41;;;;28.166385000000002
62107;BMP280;48087;32.600;-97.100;2022-07-24T08:34:46;;;;28.055274999999998
62107;BMP280;48087;32.600;-97.100;2022-07-24T08:39:48;;;;28.055274999999998
62107;BMP280;48087;32.600;-97.100;2022-07-24T08:44:53;;;;27.999720000000003
62107;BMP280;48087;32.600;-97.100;2022-07-24T08:49:57;;;;27.944164999999998
62107;BMP280;48087;32.600;-97.100;2022-07-24T08:55:01;;;;27.88861
62107;BMP280;48087;32.600;-97.100;2022-07-24T09:00:05;;;;27.944164999999998
62107;BMP280;48087;32.600;-97.100;2022-07-24T09:05:09;;;;27.944164999999998
62107;BMP280;48087;32.600;-97.100;2022-07-24T09:10:13;;;;27.999720000000003
62107;BMP280;48087;32.600;-97.100;2022-07-24T09:15:18;;;;27.999720000000003
62107;BMP280;48087;32.600;-97.100;2022-07-24T09:20:21;;;;28.110829999999996
62107;BMP280;48087;32.600;-97.100;2022-07-24T09:25:26;;;;28.166385000000002
62107;BMP280;48087;32.600;-97.100;2022-07-24T09:30:29;;;;28.221939999999996
62107;BMP280;48087;32.600;-97.100;2022-07-24T09:35:33;;;;28.221939999999996
62107;BMP280;48087;32.600;-97.100;2022-07-24T09:40:37;;;;28.166385000000002
62107;BMP280;48087;32.600;-97.100;2022-07-24T09:45:51;;;;27.999720000000003
62107;BMP280;48087;32.600;-97.100;2022-07-24T09:50:49;;;;27.88861
62107;BMP280;48087;32.600;-97.100;2022-07-24T09:55:57;;;;27.7775
62107;BMP280;48087;32.600;-97.100;2022-07-24T10:00:54;;;;27.833054999999995
62107;BMP280;48087;32.600;-97.100;2022-07-24T10:05:58;;;;27.7775
62107;BMP280;48087;32.600;-97.100;2022-07-24T10:11:00;;;;27.721945
62107;BMP280;48087;32.600;-97.100;2022-07-24T10:16:13;;;;27.721945
62107;BMP280;48087;32.600;-97.100;2022-07-24T10:21:08;;;;27.610835
62107;BMP280;48087;32.600;-97.100;2022-07-24T10:26:12;;;;27.555279999999996
62107;BMP280;48087;32.600;-97.100;2022-07-24T10:31:17;;;;27.444170000000003
62107;BMP280;48087;32.600;-97.100;2022-07-24T10:36:22;;;;27.33306
62107;BMP280;48087;32.600;-97.100;2022-07-24T10:41:25;;;;27.277504999999998
62107;BMP280;48087;32.600;-97.100;2022-07-24T10:46:29;;;;27.277504999999998
62107;BMP280;48087;32.600;-97.100;2022-07-24T10:51:32;;;;27.166395
62107;BMP280;48087;32.600;-97.100;2022-07-24T10:56:37;;;;27.055285
62107;BMP280;48087;32.600;-97.100;2022-07-24T11:01:42;;;;27.055285
62107;BMP280;48087;32.600;-97.100;2022-07-24T11:06:46;;;;26.944174999999998
62107;BMP280;48087;32.600;-97.100;2022-07-24T11:12:05;;;;26.833064999999998
62107;BMP280;48087;32.600;-97.100;2022-07-24T11:16:54;;;;26.833064999999998
62107;BMP280;48087;32.600;-97.100;2022-07-24T11:22:05;;;;26.77751
62107;BMP280;48087;32.600;-97.100;2022-07-24T11:27:04;;;;26.6664
62107;BMP280;48087;32.600;-97.100;2022-07-24T11:32:05;;;;26.610845
62107;BMP280;48087;32.600;-97.100;2022-07-24T11:37:09;;;;26.6664
62107;BMP280;48087;32.600;-97.100;2022-07-24T11:42:14;;;;26.499735
62107;BMP280;48087;32.600;-97.100;2022-07-24T11:47:18;;;;26.499735
62107;BMP280;48087;32.600;-97.100;2022-07-24T11:52:21;;;;26.444179999999996
62107;BMP280;48087;32.600;-97.100;2022-07-24T11:57:25;;;;26.388625
62107;BMP280;48087;32.600;-97.100;2022-07-24T12:02:28;;;;26.333070000000003
62107;BMP280;48087;32.600;-97.100;2022-07-24T12:07:33;;;;26.388625
62107;BMP280;48087;32.600;-97.100;2022-07-24T12:12:38;;;;26.388625
62107;BMP280;48087;32.600;-97.100;2022-07-24T12:17:53;;;;26.444179999999996
62107;BMP280;48087;32.600;-97.100;2022-07-24T12:22:44;;;;26.499735
62107;BMP280;48087;32.600;-97.100;2022-07-24T12:27:49;;;;26.610845
62107;BMP280;48087;32.600;-97.100;2022-07-24T12:32:53;;;;26.6664
62107;BMP280;48087;32.600;-97.100;2022-07-24T12:37:57;;;;26.721954999999998
62107;BMP280;48087;32.600;-97.100;2022-07-24T12:43:03;;;;26.77751
62107;BMP280;48087;32.600;-97.100;2022-07-24T12:48:07;;;;26.888620000000003
62107;BMP280;48087;32.600;-97.100;2022-07-24T12:53:09;;;;27.22195
62107;BMP280;48087;32.600;-97.100;2022-07-24T12:58:12;;;;27.444170000000003
62107;BMP280;48087;32.600;-97.100;2022-07-24T13:03:23;;;;27.666389999999996
62107;BMP280;48087;32.600;-97.100;2022-07-24T13:08:21;;;;27.7775
62107;BMP280;48087;32.600;-97.100;2022-07-24T13:13:24;;;;27.999720000000003
62107;BMP280;48087;32.600;-97.100;2022-07-24T13:18:28;;;;28.055274999999998
62107;BMP280;48087;32.600;-97.100;2022-07-24T13:23:32;;;;28.277495000000002
62107;BMP280;48087;32.600;-97.100;2022-07-24T13:28:38;;;;28.277495000000002
62107;BMP280;48087;32.600;-97.100;2022-07-24T13:33:40;;;;28.388604999999995
62107;BMP280;48087;32.600;-97.100;2022-07-24T13:38:44;;;;28.610825
62107;BMP280;48087;32.600;-97.100;2022-07-24T13:43:49;;;;28.833045000000002
62107;BMP280;48087;32.600;-97.100;2022-07-24T13:48:53;;;;29.221929999999997
62107;BMP280;48087;32.600;-97.100;2022-07-24T13:53:56;;;;29.277485000000002
62107;BMP280;48087;32.600;-97.100;2022-07-24T13:59:00;;;;29.666370000000004
62107;BMP280;48087;32.600;-97.100;2022-07-24T14:04:04;;;;29.721925
62107;BMP280;48087;32.600;-97.100;2022-07-24T14:09:08;;;;29.777479999999997
62107;BMP280;48087;32.600;-97.100;2022-07-24T14:14:12;;;;30.055254999999995
62107;BMP280;48087;32.600;-97.100;2022-07-24T14:19:16;;;;30.11081
62107;BMP280;48087;32.600;-97.100;2022-07-24T14:24:20;;;;30.444139999999997
62107;BMP280;48087;32.600;-97.100;2022-07-24T14:29:24;;;;30.444139999999997
62107;BMP280;48087;32.600;-97.100;2022-07-24T14:34:28;;;;30.388585000000003
62107;BMP280;48087;32.600;-97.100;2022-07-24T14:39:31;;;;30.944135
62107;BMP280;48087;32.600;-97.100;2022-07-24T14:44:36;;;;31.055245000000003
62107;BMP280;48087;32.600;-97.100;2022-07-24T14:49:40;;;;31.388575
62107;BMP280;48087;32.600;-97.100;2022-07-24T14:54:45;;;;31.610795000000003
62107;BMP280;48087;32.600;-97.100;2022-07-24T14:59:48;;;;31.833014999999996
62107;BMP280;48087;32.600;-97.100;2022-07-24T15:04:52;;;;31.999679999999998
62107;BMP280;48087;32.600;-97.100;2022-07-24T15:09:55;;;;31.944125
62107;BMP280;48087;32.600;-97.100;2022-07-24T15:15:00;;;;32.33301
62107;BMP280;48087;32.600;-97.100;2022-07-24T15:20:04;;;;32.2219
62107;BMP280;48087;32.600;-97.100;2022-07-24T15:25:08;;;;32.499674999999996
62107;BMP280;48087;32.600;-97.100;2022-07-24T15:30:12;;;;32.277454999999996
62107;BMP280;48087;32.600;-97.100;2022-07-24T15:35:16;;;;32.77745
62107;BMP280;48087;32.600;-97.100;2022-07-24T15:40:20;;;;33.11078
62107;BMP280;48087;32.600;-97.100;2022-07-24T15:45:25;;;;32.99967
62107;BMP280;48087;32.600;-97.100;2022-07-24T15:50:30;;;;33.221889999999995
62107;BMP280;48087;32.600;-97.100;2022-07-24T15:55:32;;;;32.99967
62107;BMP280;48087;32.600;-97.100;2022-07-24T16:00:36;;;;32.99967
62107;BMP280;48087;32.600;-97.100;2022-07-24T16:05:40;;;;33.666329999999995
62107;BMP280;48087;32.600;-97.100;2022-07-24T16:10:44;;;;34.22188
62107;BMP280;48087;32.600;-97.100;2022-07-24T16:15:48;;;;33.666329999999995
62107;BMP280;48087;32.600;-97.100;2022-07-24T16:20:52;;;;33.99966
62107;BMP280;48087;32.600;-97.100;2022-07-24T16:25:56;;;;33.77744
62107;BMP280;48087;32.600;-97.100;2022-07-24T16:30:59;;;;33.94410499999999
62107;BMP280;48087;32.600;-97.100;2022-07-24T16:36:04;;;;34.721875
62107;BMP280;48087;32.600;-97.100;2022-07-24T16:41:08;;;;34.11077
62107;BMP280;48087;32.600;-97.100;2022-07-24T16:46:11;;;;34.721875
62107;BMP280;48087;32.600;-97.100;2022-07-24T16:51:16;;;;34.88854
62107;BMP280;48087;32.600;-97.100;2022-07-24T16:56:21;;;;35.22187
62107;BMP280;48087;32.600;-97.100;2022-07-24T17:01:23;;;;35.11076
62107;BMP280;48087;32.600;-97.100;2022-07-24T17:06:28;;;;35.11076
62107;BMP280;48087;32.600;-97.100;2022-07-24T17:11:32;;;;35.11076
62107;BMP280;48087;32.600;-97.100;2022-07-24T17:16:35;;;;35.166315
62107;BMP280;48087;32.600;-97.100;2022-07-24T17:21:39;;;;35.388535
62107;BMP280;48087;32.600;-97.100;2022-07-24T17:26:44;;;;36.44408
62107;BMP280;48087;32.600;-97.100;2022-07-24T17:31:47;;;;36.22186
62107;BMP280;48087;32.600;-97.100;2022-07-24T17:36:53;;;;35.832975
62107;BMP280;48087;32.600;-97.100;2022-07-24T17:41:55;;;;36.44408
62107;BMP280;48087;32.600;-97.100;2022-07-24T17:46:59;;;;36.44408
62107;BMP280;48087;32.600;-97.100;2022-07-24T17:52:03;;;;37.11074
62107;BMP280;48087;32.600;-97.100;2022-07-24T17:57:08;;;;37.44407
62107;BMP280;48087;32.600;-97.100;2022-07-24T18:02:11;;;;37.055185
62107;BMP280;48087;32.600;-97.100;2022-07-24T18:07:16;;;;37.33296
62107;BMP280;48087;32.600;-97.100;2022-07-24T18:12:19;;;;38.66627999999999
62107;BMP280;48087;32.600;-97.100;2022-07-24T18:17:23;;;;37.166295000000005
62107;BMP280;48087;32.600;-97.100;2022-07-24T18:22:27;;;;38.499615
62107;BMP280;48087;32.600;-97.100;2022-07-24T18:27:31;;;;37.166295000000005
62107;BMP280;48087;32.600;-97.100;2022-07-24T18:32:35;;;;37.388515
62107;BMP280;48087;32.600;-97.100;2022-07-24T18:37:39;;;;37.277404999999995
62107;BMP280;48087;32.600;-97.100;2022-07-24T18:42:43;;;;37.221849999999996
62107;BMP280;48087;32.600;-97.100;2022-07-24T18:47:48;;;;37.33296
62107;BMP280;48087;32.600;-97.100;2022-07-24T18:52:51;;;;37.66629
62107;BMP280;48087;32.600;-97.100;2022-07-24T18:57:56;;;;38.44406
62107;BMP280;48087;32.600;-97.100;2022-07-24T19:02:59;;;;38.77739
62107;BMP280;48087;32.600;-97.100;2022-07-24T19:08:04;;;;39.55516
62107;BMP280;48087;32.600;-97.100;2022-07-24T19:13:07;;;;39.11072
62107;BMP280;48087;32.600;-97.100;2022-07-24T19:18:11;;;;39.388495
62107;BMP280;48087;32.600;-97.100;2022-07-24T19:23:15;;;;39.721825
62107;BMP280;48087;32.600;-97.100;2022-07-24T19:28:20;;;;38.8885
62107;BMP280;48087;32.600;-97.100;2022-07-24T19:33:23;;;;38.66627999999999
62107;BMP280;48087;32.600;-97.100;2022-07-24T19:38:27;;;;38.555170000000004
62107;BMP280;48087;32.600;-97.100;2022-07-24T19:43:31;;;;39.33294
62107;BMP280;48087;32.600;-97.100;2022-07-24T19:48:35;;;;39.22183
62107;BMP280;48087;32.600;-97.100;2022-07-24T19:53:40;;;;39.277385
62107;BMP280;48087;32.600;-97.100;2022-07-24T19:58:43;;;;39.944045
62107;BMP280;48087;32.600;-97.100;2022-07-24T20:03:47;;;;40.944035
62107;BMP280;48087;32.600;-97.100;2022-07-24T20:08:52;;;;40.11071
62107;BMP280;48087;32.600;-97.100;2022-07-24T20:13:56;;;;39.777379999999994
62107;BMP280;48087;32.600;-97.100;2022-07-24T20:18:59;;;;40.055155
62107;BMP280;48087;32.600;-97.100;2022-07-24T20:24:04;;;;39.22183
62107;BMP280;48087;32.600;-97.100;2022-07-24T20:29:07;;;;39.388495
62107;BMP280;48087;32.600;-97.100;2022-07-24T20:34:11;;;;39.944045
62107;BMP280;48087;32.600;-97.100;2022-07-24T20:39:16;;;;41.44403
62107;BMP280;48087;32.600;-97.100;2022-07-24T20:44:19;;;;40.277375
62107;BMP280;48087;32.600;-97.100;2022-07-24T20:49:23;;;;39.944045
62107;BMP280;48087;32.600;-97.100;2022-07-24T20:54:28;;;;40.777370000000005
62107;BMP280;48087;32.600;-97.100;2022-07-24T20:59:31;;;;40.610704999999996
62107;BMP280;48087;32.600;-97.100;2022-07-24T21:04:35;;;;40.832924999999996
62107;BMP280;48087;32.600;-97.100;2022-07-24T21:09:39;;;;40.610704999999996
62107;BMP280;48087;32.600;-97.100;2022-07-24T21:14:43;;;;39.944045
62107;BMP280;48087;32.600;-97.100;2022-07-24T21:19:47;;;;40.66626
62107;BMP280;48087;32.600;-97.100;2022-07-24T21:24:52;;;;39.388495
62107;BMP280;48087;32.600;-97.100;2022-07-24T21:29:55;;;;40.66626
62107;BMP280;48087;32.600;-97.100;2022-07-24T21:34:59;;;;40.610704999999996
62107;BMP280;48087;32.600;-97.100;2022-07-24T21:40:05;;;;40.499595
62107;BMP280;48087;32.600;-97.100;2022-07-24T21:45:07;;;;40.888479999999994
62107;BMP280;48087;32.600;-97.100;2022-07-24T21:50:11;;;;40.610704999999996
62107;BMP280;48087;32.600;-97.100;2022-07-24T21:55:15;;;;39.832935
62107;BMP280;48087;32.600;-97.100;2022-07-24T22:00:19;;;;40.721815
62107;BMP280;48087;32.600;-97.100;2022-07-24T22:05:23;;;;41.66625
62107;BMP280;48087;32.600;-97.100;2022-07-24T22:10:27;;;;40.888479999999994
62107;BMP280;48087;32.600;-97.100;2022-07-24T22:15:31;;;;40.499595
62107;BMP280;48087;32.600;-97.100;2022-07-24T22:20:35;;;;40.22182
62107;BMP280;48087;32.600;-97.100;2022-07-24T22:25:40;;;;40.22182
62107;BMP280;48087;32.600;-97.100;2022-07-24T22:30:43;;;;40.44404
62107;BMP280;48087;32.600;-97.100;2022-07-24T22:35:47;;;;40.721815
62107;BMP280;48087;32.600;-97.100;2022-07-24T22:40:51;;;;40.888479999999994
62107;BMP280;48087;32.600;-97.100;2022-07-24T22:45:56;;;;40.66626
62107;BMP280;48087;32.600;-97.100;2022-07-24T22:50:59;;;;39.832935
62107;BMP280;48087;32.600;-97.100;2022-07-24T22:56:04;;;;40.11071
62107;BMP280;48087;32.600;-97.100;2022-07-24T23:01:07;;;;40.11071
62107;BMP280;48087;32.600;-97.100;2022-07-24T23:06:11;;;;39.832935
62107;BMP280;48087;32.600;-97.100;2022-07-24T23:11:15;;;;39.44405
62107;BMP280;48087;32.600;-97.100;2022-07-24T23:16:19;;;;39.944045
62107;BMP280;48087;32.600;-97.100;2022-07-24T23:21:23;;;;40.055155
62107;BMP280;48087;32.600;-97.100;2022-07-24T23:26:27;;;;40.55515
62107;BMP280;48087;32.600;-97.100;2022-07-24T23:31:31;;;;39.88849
62107;BMP280;48087;32.600;-97.100;2022-07-24T23:36:34;;;;39.832935
62107;BMP280;48087;32.600;-97.100;2022-07-24T23:41:39;;;;39.22183
62107;BMP280;48087;32.600;-97.100;2022-07-24T23:46:43;;;;39.832935
62107;BMP280;48087;32.600;-97.100;2022-07-24T23:51:47;;;;39.22183
62107;BMP280;48087;32.600;-97.100;2022-07-24T23:56:53;;;;39.22183
